createdAt,value
2023-04-01T00:01:20.829Z,6.88
2023-04-01T00:06:23.680Z,6.81
2023-04-01T00:11:26.131Z,6.75
2023-04-01T00:16:28.029Z,6.67
2023-04-01T00:21:30.102Z,6.63
2023-04-01T00:26:31.794Z,6.64
2023-04-01T00:31:33.654Z,6.68
2023-04-01T00:36:35.517Z,6.70
2023-04-01T00:41:37.288Z,6.65
2023-04-01T00:46:39.010Z,6.64
2023-04-01T00:51:42.875Z,6.78
2023-04-01T00:57:08.399Z,6.97
2023-04-01T01:02:14.032Z,7.11
2023-04-01T01:07:33.416Z,7.20
2023-04-01T01:12:46.196Z,7.30
2023-04-01T01:18:00.423Z,7.40
2023-04-01T01:23:33.507Z,7.40
2023-04-01T01:28:49.230Z,7.33
2023-04-01T01:34:19.364Z,7.21
2023-04-01T01:39:27.660Z,7.05
2023-04-01T01:44:31.677Z,6.90
2023-04-01T01:49:35.528Z,6.83
2023-04-01T01:54:37.405Z,6.80
2023-04-01T01:59:41.324Z,6.74
2023-04-01T02:04:46.669Z,6.71
2023-04-01T02:09:49.554Z,6.75
2023-04-01T02:14:57.542Z,6.80
2023-04-01T02:20:08.710Z,6.89
2023-04-01T02:25:18.622Z,6.90
2023-04-01T02:30:34.660Z,6.91
2023-04-01T02:35:38.238Z,6.97
2023-04-01T02:40:46.199Z,7.06
2023-04-01T02:45:48.015Z,7.17
2023-04-01T02:50:49.802Z,7.24
2023-04-01T02:55:52.800Z,7.25
2023-04-01T03:00:54.899Z,7.20
2023-04-01T03:05:57.376Z,7.14
2023-04-01T03:11:00.629Z,7.04
2023-04-01T03:16:02.978Z,6.93
2023-04-01T03:21:23.679Z,6.78
2023-04-01T03:26:27.751Z,6.58
2023-04-01T03:31:29.724Z,6.35
2023-04-01T03:36:31.874Z,6.15
2023-04-01T03:41:36.952Z,5.98
2023-04-01T03:46:39.098Z,5.94
2023-04-01T03:51:45.115Z,6.07
2023-04-01T03:56:47.561Z,6.33
2023-04-01T04:01:49.685Z,6.58
2023-04-01T04:06:52.184Z,6.75
2023-04-01T04:11:54.874Z,6.89
2023-04-01T04:16:56.748Z,7.04
2023-04-01T04:21:58.626Z,7.19
2023-04-01T04:27:00.546Z,7.33
2023-04-01T04:32:02.945Z,7.40
2023-04-01T04:37:05.327Z,7.45
2023-04-01T04:42:09.884Z,7.46
2023-04-01T04:47:11.880Z,7.73
2023-04-01T04:52:13.739Z,7.92
2023-04-01T04:57:15.406Z,8.05
2023-04-01T05:02:22.403Z,8.14
2023-04-01T05:07:24.391Z,8.21
2023-04-01T05:12:26.286Z,8.32
2023-04-01T05:17:36.340Z,8.44
2023-04-01T05:22:38.782Z,8.55
2023-04-01T05:27:41.088Z,8.63
2023-04-01T05:32:42.888Z,8.71
2023-04-01T05:37:44.760Z,8.79
2023-04-01T05:42:46.763Z,8.93
2023-04-01T05:47:48.757Z,9.07
2023-04-01T05:52:51.149Z,9.24
2023-04-01T05:57:53.069Z,9.38
2023-04-01T06:02:54.947Z,9.47
2023-04-01T06:08:06.888Z,9.50
2023-04-01T06:13:19.977Z,9.58
2023-04-01T06:18:27.742Z,9.73
2023-04-01T06:23:35.754Z,9.82
2023-04-01T06:29:05.882Z,9.88
2023-04-01T06:34:27.627Z,9.86
2023-04-01T06:39:54.037Z,9.77
2023-04-01T06:45:05.114Z,9.81
2023-04-01T06:50:31.991Z,9.94
2023-04-01T06:56:01.263Z,9.99
2023-04-01T07:01:17.999Z,10.01
2023-04-01T07:06:33.876Z,9.98
2023-04-01T07:11:39.675Z,9.96
2023-04-01T07:17:28.754Z,9.97
2023-04-01T07:22:38.127Z,9.95
2023-04-01T07:28:18.215Z,10.01
2023-04-01T07:33:52.759Z,10.16
2023-04-01T07:39:23.362Z,10.47
2023-04-01T07:45:02.135Z,10.89
2023-04-01T07:50:29.783Z,11.19
2023-04-01T07:55:50.216Z,11.55
2023-04-01T08:01:10.971Z,11.79
2023-04-01T08:06:17.471Z,12.19
2023-04-01T08:11:31.332Z,12.49
2023-04-01T08:17:06.481Z,12.87
2023-04-01T08:22:22.653Z,13.00
2023-04-01T08:27:43.191Z,12.69
2023-04-01T08:32:51.878Z,12.30
2023-04-01T08:37:57.406Z,12.41
2023-04-01T08:43:07.987Z,12.61
2023-04-01T08:48:22.919Z,12.84
2023-04-01T08:53:48.663Z,13.11
2023-04-01T08:59:16.039Z,12.97
2023-04-01T09:04:50.685Z,12.66
2023-04-01T09:09:58.549Z,12.38
2023-04-01T09:15:32.058Z,12.56
2023-04-01T09:20:47.099Z,12.71
2023-04-01T09:26:20.447Z,12.76
2023-04-01T09:31:41.426Z,12.98
2023-04-01T09:37:33.995Z,13.14
2023-04-01T09:42:52.198Z,13.31
2023-04-01T09:48:21.393Z,13.51
2023-04-01T09:54:11.495Z,13.37
2023-04-01T09:59:44.689Z,12.72
2023-04-01T10:05:13.428Z,12.30
2023-04-01T10:10:37.147Z,12.43
2023-04-01T10:15:51.925Z,12.97
2023-04-01T10:21:29.561Z,13.52
2023-04-01T10:26:59.302Z,14.12
2023-04-01T10:32:36.210Z,14.12
2023-04-01T10:38:09.299Z,13.57
2023-04-01T10:43:29.691Z,13.08
2023-04-01T10:49:10.864Z,13.02
2023-04-01T10:54:45.140Z,13.46
2023-04-01T11:00:23.552Z,14.04
2023-04-01T11:05:57.486Z,14.28
2023-04-01T11:11:29.852Z,14.08
2023-04-01T11:16:56.787Z,13.50
2023-04-01T11:22:10.535Z,12.86
2023-04-01T11:27:39.620Z,12.47
2023-04-01T11:32:55.853Z,12.65
2023-04-01T11:38:47.410Z,12.68
2023-04-01T11:44:28.284Z,12.80
2023-04-01T11:50:07.486Z,12.82
2023-04-01T11:56:13.104Z,12.93
2023-04-01T12:01:20.655Z,13.20
2023-04-01T12:06:56.767Z,13.47
2023-04-01T12:12:01.402Z,13.72
2023-04-01T12:17:32.052Z,13.80
2023-04-01T12:23:04.808Z,13.79
2023-04-01T12:28:27.016Z,13.61
2023-04-01T12:34:04.573Z,13.43
2023-04-01T12:39:33.669Z,13.72
2023-04-01T12:44:38.363Z,14.06
2023-04-01T12:49:58.704Z,13.95
2023-04-01T12:55:36.174Z,13.80
2023-04-01T13:01:09.653Z,14.01
2023-04-01T13:06:21.368Z,14.28
2023-04-01T13:11:39.173Z,14.39
2023-04-01T13:16:49.882Z,14.28
2023-04-01T13:22:03.646Z,14.31
2023-04-01T13:27:31.893Z,14.35
2023-04-01T13:32:43.678Z,14.39
2023-04-01T13:38:13.747Z,14.08
2023-04-01T13:43:22.730Z,13.62
2023-04-01T13:48:36.832Z,13.32
2023-04-01T13:53:56.882Z,13.06
2023-04-01T13:59:24.732Z,12.80
2023-04-01T14:04:57.273Z,12.57
2023-04-01T14:10:09.034Z,12.27
2023-04-01T14:15:48.378Z,11.77
2023-04-01T14:21:01.263Z,11.24
2023-04-01T14:26:31.067Z,10.80
2023-04-01T14:32:11.515Z,10.58
2023-04-01T14:37:41.877Z,10.63
2023-04-01T14:43:00.425Z,10.88
2023-04-01T14:48:22.763Z,11.17
2023-04-01T14:53:24.397Z,11.44
2023-04-01T14:58:42.341Z,11.48
2023-04-01T15:04:19.696Z,11.53
2023-04-01T15:09:39.980Z,11.43
2023-04-01T15:15:09.262Z,11.37
2023-04-01T15:20:44.099Z,11.30
2023-04-01T15:26:01.449Z,11.15
2023-04-01T15:31:33.801Z,11.02
2023-04-01T15:37:01.490Z,10.80
2023-04-01T15:42:33.065Z,10.68
2023-04-01T15:47:40.996Z,10.61
2023-04-01T15:53:04.394Z,10.53
2023-04-01T15:58:25.197Z,10.48
2023-04-01T16:03:41.751Z,10.34
2023-04-01T16:09:20.217Z,10.20
2023-04-01T16:14:52.768Z,10.16
2023-04-01T16:20:14.328Z,10.17
2023-04-01T16:25:42.942Z,10.22
2023-04-01T16:31:12.249Z,10.16
2023-04-01T16:36:28.433Z,10.11
2023-04-01T16:41:37.077Z,10.05
2023-04-01T16:46:48.004Z,9.97
2023-04-01T16:51:53.046Z,9.90
2023-04-01T16:57:03.036Z,9.83
2023-04-01T17:02:07.735Z,9.66
2023-04-01T17:07:31.415Z,9.50
2023-04-01T17:13:01.039Z,9.36
2023-04-01T17:18:34.074Z,9.22
2023-04-01T17:23:51.932Z,9.10
2023-04-01T17:29:06.301Z,9.01
2023-04-01T17:34:15.700Z,8.88
2023-04-01T17:39:46.482Z,8.73
2023-04-01T17:45:01.829Z,8.54
2023-04-01T17:50:28.605Z,8.42
2023-04-01T17:56:01.145Z,8.34
2023-04-01T18:01:18.944Z,8.28
2023-04-01T18:06:54.601Z,8.26
2023-04-01T18:12:18.326Z,8.25
2023-04-01T18:17:43.096Z,8.23
2023-04-01T18:23:07.453Z,8.21
2023-04-01T18:28:28.626Z,8.18
2023-04-01T18:33:36.061Z,8.16
2023-04-01T18:38:46.687Z,8.21
2023-04-01T18:44:26.878Z,8.24
2023-04-01T18:49:45.585Z,8.27
2023-04-01T18:55:26.476Z,8.28
2023-04-01T19:00:49.933Z,8.21
2023-04-01T19:05:54.677Z,8.17
2023-04-01T19:11:14.918Z,8.17
2023-04-01T19:16:35.434Z,8.25
2023-04-01T19:21:47.816Z,8.18
2023-04-01T19:27:12.293Z,8.09
2023-04-01T19:32:46.617Z,8.07
2023-04-01T19:38:10.249Z,8.06
2023-04-01T19:43:23.907Z,8.15
2023-04-01T19:48:45.834Z,8.22
2023-04-01T19:54:16.511Z,8.20
2023-04-01T19:59:48.679Z,8.22
2023-04-01T20:04:57.356Z,8.29
2023-04-01T20:10:11.028Z,8.35
2023-04-01T20:15:34.490Z,8.36
2023-04-01T20:20:38.692Z,8.28
2023-04-01T20:26:03.418Z,8.18
2023-04-01T20:31:27.257Z,8.08
2023-04-01T20:36:48.745Z,7.98
2023-04-01T20:41:53.211Z,7.94
2023-04-01T20:47:14.853Z,7.88
2023-04-01T20:52:24.006Z,7.87
2023-04-01T20:57:36.759Z,7.97
2023-04-01T21:03:07.097Z,8.08
2023-04-01T21:08:34.074Z,8.06
2023-04-01T21:13:51.385Z,8.01
2023-04-01T21:19:06.278Z,8.01
2023-04-01T21:24:47.432Z,8.01
2023-04-01T21:30:02.596Z,8.10
2023-04-01T21:35:23.210Z,8.16
2023-04-01T21:41:14.437Z,8.15
2023-04-01T21:46:27.703Z,8.13
2023-04-01T21:52:19.335Z,8.16
2023-04-01T21:57:51.975Z,8.22
2023-04-01T22:03:19.825Z,8.17
2023-04-01T22:08:33.250Z,8.15
2023-04-01T22:13:51.307Z,8.15
2023-04-01T22:19:25.767Z,8.23
2023-04-01T22:24:39.586Z,8.43
2023-04-01T22:29:59.654Z,8.50
2023-04-01T22:35:19.604Z,8.41
2023-04-01T22:40:25.649Z,8.31
2023-04-01T22:45:52.794Z,8.29
2023-04-01T22:51:13.365Z,8.36
2023-04-01T22:56:24.739Z,8.32
2023-04-01T23:01:33.815Z,8.21
2023-04-01T23:06:51.147Z,8.16
2023-04-01T23:12:01.595Z,8.17
2023-04-01T23:17:16.236Z,8.14
2023-04-01T23:22:31.726Z,8.13
2023-04-01T23:28:00.901Z,8.05
2023-04-01T23:33:32.828Z,8.05
2023-04-01T23:38:43.152Z,8.22
2023-04-01T23:43:50.380Z,8.34
2023-04-01T23:48:54.364Z,8.42
2023-04-01T23:54:17.540Z,8.49
2023-04-01T23:59:24.830Z,8.53
